Time;durP1;ratioP1;P1;durP2;ratioP2;P2;SDS_P1;SDS_P2;PMS_P1;PMS_P2;Temp;Humidity;BMP_temperature;BMP_pressure;BME280_temperature;BME280_humidity;BME280_pressure;Samples;Min_cycle;Max_cycle;Signal;HPM_P1;HPM_P2
2023/12/19 00:01:09;;;;;;;101.05;48.55;;;7.10;99.90;;;;;;4905107;29;20188;-74
2023/12/19 00:03:34;;;;;;;100.03;47.50;;;7.10;99.90;;;;;;4920445;29;20130;-74
2023/12/19 00:06:00;;;;;;;106.97;49.83;;;7.10;99.90;;;;;;4920382;29;20056;-73
2023/12/19 00:08:26;;;;;;;106.03;50.45;;;7.10;99.90;;;;;;4936272;29;20044;-74
2023/12/19 00:10:52;;;;;;;99.47;48.38;;;7.10;99.90;;;;;;4904609;29;20047;-74
2023/12/19 00:13:18;;;;;;;111.97;51.08;;;7.10;99.90;;;;;;4920268;29;20354;-74
2023/12/19 00:15:43;;;;;;;101.30;48.58;;;7.10;99.90;;;;;;4920234;29;20497;-74
2023/12/19 00:18:09;;;;;;;90.75;47.05;;;7.10;99.90;;;;;;4920074;29;20056;-74
2023/12/19 00:20:35;;;;;;;86.18;44.35;;;7.10;99.90;;;;;;4920043;29;20509;-73
2023/12/19 00:23:01;;;;;;;94.40;45.35;;;7.10;99.90;;;;;;4920353;29;20095;-73
2023/12/19 00:25:27;;;;;;;94.82;45.60;;;7.10;99.90;;;;;;4919859;29;20052;-72
2023/12/19 00:27:53;;;;;;;82.68;41.25;;;7.10;99.90;;;;;;4935942;29;20400;-72
2023/12/19 00:30:19;;;;;;;83.03;43.42;;;7.00;99.90;;;;;;4920268;29;20036;-73
2023/12/19 00:32:45;;;;;;;96.13;44.53;;;7.00;99.90;;;;;;4936047;29;20123;-73
2023/12/19 00:35:11;;;;;;;90.18;43.22;;;7.00;99.90;;;;;;4919888;29;20039;-73
2023/12/19 00:37:37;;;;;;;82.75;41.58;;;7.00;99.90;;;;;;4904361;29;20099;-73
2023/12/19 00:40:04;;;;;;;65.22;37.42;;;7.00;99.90;;;;;;4919609;29;20090;-73
2023/12/19 00:42:30;;;;;;;79.20;41.85;;;7.00;99.90;;;;;;4888622;29;20052;-73
2023/12/19 00:44:56;;;;;;;65.03;36.55;;;7.00;99.90;;;;;;4903631;29;20428;-72
2023/12/19 00:47:21;;;;;;;69.25;39.28;;;7.00;99.90;;;;;;4904120;29;20051;-74
2023/12/19 00:49:47;;;;;;;75.95;40.70;;;7.00;99.90;;;;;;4919610;29;20047;-74
2023/12/19 00:52:13;;;;;;;83.50;42.13;;;7.00;99.90;;;;;;4919686;29;20040;-74
2023/12/19 00:54:38;;;;;;;71.97;39.58;;;7.00;99.90;;;;;;4919766;29;20511;-74
2023/12/19 00:57:04;;;;;;;79.18;41.28;;;7.00;99.90;;;;;;4919457;29;20047;-73
2023/12/19 00:59:30;;;;;;;85.88;42.17;;;7.00;99.90;;;;;;4903640;29;20039;-74
2023/12/19 01:01:56;;;;;;;68.30;39.08;;;7.00;99.90;;;;;;4872523;29;20062;-73
2023/12/19 01:04:22;;;;;;;63.90;37.38;;;7.00;99.90;;;;;;4919248;29;20052;-73
2023/12/19 01:06:48;;;;;;;75.20;41.60;;;7.00;99.90;;;;;;4919196;29;20050;-73
2023/12/19 01:09:13;;;;;;;71.88;39.28;;;7.00;99.90;;;;;;4887903;29;20492;-73
2023/12/19 01:11:39;;;;;;;75.88;40.47;;;7.00;99.90;;;;;;4888158;29;20583;-73
2023/12/19 01:14:05;;;;;;;74.72;39.42;;;7.10;99.90;;;;;;4919184;29;20046;-73
2023/12/19 01:16:31;;;;;;;71.47;39.92;;;7.10;99.90;;;;;;4919157;29;20086;-73
2023/12/19 01:18:57;;;;;;;72.13;39.13;;;7.00;99.90;;;;;;4918941;29;20623;-74
2023/12/19 01:21:22;;;;;;;75.03;39.75;;;7.00;99.90;;;;;;4903194;29;20059;-74
2023/12/19 01:23:48;;;;;;;65.05;37.60;;;7.00;99.90;;;;;;4919046;29;20121;-73
2023/12/19 01:26:14;;;;;;;63.15;36.03;;;7.00;99.90;;;;;;4918893;29;20047;-74
2023/12/19 01:28:40;;;;;;;72.03;40.20;;;7.00;99.90;;;;;;4903074;29;20044;-74
2023/12/19 01:31:06;;;;;;;67.97;37.55;;;7.00;99.90;;;;;;4919120;29;20043;-74
2023/12/19 01:33:32;;;;;;;62.83;34.60;;;7.00;99.90;;;;;;4919112;29;20407;-74
2023/12/19 01:35:57;;;;;;;63.42;37.17;;;7.00;99.90;;;;;;4903171;29;20092;-74
2023/12/19 01:38:23;;;;;;;55.38;33.80;;;7.00;99.90;;;;;;4918758;29;20043;-74
2023/12/19 01:40:49;;;;;;;57.72;34.92;;;7.00;99.90;;;;;;4903129;29;20066;-74
2023/12/19 01:43:19;;;;;;;57.30;33.60;;;7.00;99.90;;;;;;4918807;29;20519;-74
2023/12/19 01:45:45;;;;;;;60.53;35.17;;;7.00;99.90;;;;;;4903250;29;20075;-70
2023/12/19 01:48:12;;;;;;;58.50;34.38;;;7.00;99.90;;;;;;4934489;29;20070;-71
2023/12/19 01:50:38;;;;;;;55.92;32.97;;;6.90;99.90;;;;;;4918627;29;20095;-70
2023/12/19 01:53:03;;;;;;;53.00;32.10;;;6.90;99.90;;;;;;4903102;29;20481;-70
2023/12/19 01:55:29;;;;;;;51.10;31.60;;;7.00;99.90;;;;;;4918176;29;20035;-70
2023/12/19 01:57:55;;;;;;;53.40;30.80;;;7.00;99.90;;;;;;4918602;29;20054;-69
2023/12/19 02:00:22;;;;;;;48.53;30.73;;;7.00;99.90;;;;;;4902809;29;20056;-70
2023/12/19 02:03:00;;;;;;;44.97;29.27;;;7.00;99.90;;;;;;4934604;29;20590;-69
2023/12/19 02:05:26;;;;;;;58.55;33.47;;;7.00;99.90;;;;;;4953214;28;20070;-70
2023/12/19 02:07:52;;;;;;;57.03;33.30;;;7.00;99.90;;;;;;4937566;29;20511;-69
2023/12/19 02:10:23;;;;;;;50.83;32.63;;;6.90;99.90;;;;;;4937365;29;20132;-70
2023/12/19 02:13:05;;;;;;;;;;;;;;;;;;;;;
2023/12/19 02:15:31;;;;;;;;;;;6.90;99.90;;;;;;4937937;29;20071;-73
2023/12/19 02:17:57;;;;;;;51.30;29.67;;;6.90;99.90;;;;;;4953605;29;19965;-74
2023/12/19 02:20:23;;;;;;;58.13;33.08;;;6.90;99.90;;;;;;4937093;29;20066;-73
2023/12/19 02:22:52;;;;;;;54.08;31.73;;;6.90;99.90;;;;;;4953649;29;20055;-73
2023/12/19 02:25:20;;;;;;;55.25;31.25;;;6.90;99.90;;;;;;4953644;29;20051;-74
2023/12/19 02:27:46;;;;;;;53.85;33.00;;;6.90;99.90;;;;;;4921228;29;20051;-75
2023/12/19 02:30:12;;;;;;;52.25;32.55;;;6.90;99.90;;;;;;4937031;29;20051;-74
2023/12/19 02:32:38;;;;;;;54.47;31.70;;;6.90;99.90;;;;;;4921877;29;20035;-73
2023/12/19 02:35:16;;;;;;;50.70;29.80;;;6.90;99.90;;;;;;4905804;29;20098;-74
2023/12/19 02:37:42;;;;;;;57.45;32.88;;;6.80;99.90;;;;;;4937203;29;20051;-74
2023/12/19 02:40:10;;;;;;;51.72;31.70;;;6.80;99.90;;;;;;4937435;29;20046;-74
2023/12/19 02:42:49;;;;;;;46.92;31.13;;;6.90;99.90;;;;;;4905865;29;20050;-74
2023/12/19 02:45:15;;;;;;;51.88;30.23;;;6.90;99.90;;;;;;4921276;29;20050;-73
2023/12/19 02:47:48;;;;;;;47.50;30.10;;;6.90;99.90;;;;;;4921781;29;20058;-73
2023/12/19 02:50:14;;;;;;;53.13;31.45;;;6.90;99.90;;;;;;4937353;29;20484;-74
2023/12/19 02:52:40;;;;;;;49.42;31.02;;;6.80;99.90;;;;;;4937350;29;20097;-74
2023/12/19 02:55:06;;;;;;;48.53;29.70;;;6.90;99.90;;;;;;4937159;29;20110;-74
2023/12/19 02:57:32;;;;;;;38.72;23.73;;;6.90;99.90;;;;;;4937072;29;20043;-74
2023/12/19 02:59:58;;;;;;;46.47;27.65;;;6.90;99.90;;;;;;4937030;29;20050;-74
2023/12/19 03:02:24;;;;;;;54.55;31.05;;;6.80;99.90;;;;;;4921181;29;20514;-75
2023/12/19 03:04:50;;;;;;;57.42;31.98;;;6.90;99.90;;;;;;4921453;29;20133;-73
2023/12/19 03:07:15;;;;;;;53.65;30.70;;;7.00;99.90;;;;;;4938753;29;20615;-73
2023/12/19 03:09:41;;;;;;;49.67;29.38;;;6.90;99.90;;;;;;4924624;29;20522;-73
2023/12/19 03:12:10;;;;;;;47.03;29.17;;;6.90;99.90;;;;;;4909027;29;20043;-74
2023/12/19 03:14:39;;;;;;;41.88;25.60;;;6.80;99.90;;;;;;4940483;29;20137;-73
2023/12/19 03:17:05;;;;;;;42.72;26.92;;;6.80;99.90;;;;;;4940440;29;20038;-74
2023/12/19 03:19:36;;;;;;;45.47;27.65;;;6.90;99.90;;;;;;4924648;29;20055;-75
2023/12/19 03:22:02;;;;;;;44.85;25.83;;;6.90;99.90;;;;;;4940396;29;20058;-73
2023/12/19 03:24:32;;;;;;;41.33;26.50;;;6.90;99.90;;;;;;4940534;29;20074;-74
2023/12/19 03:26:58;;;;;;;44.25;26.42;;;6.90;99.90;;;;;;4924531;29;20547;-74
2023/12/19 03:29:24;;;;;;;39.53;24.85;;;6.90;99.90;;;;;;4940173;29;20137;-73
2023/12/19 03:31:50;;;;;;;40.88;24.48;;;6.90;99.90;;;;;;4940114;29;20049;-74
2023/12/19 03:34:16;;;;;;;32.42;21.67;;;6.90;99.90;;;;;;4940078;29;20094;-74
2023/12/19 03:36:42;;;;;;;36.45;23.05;;;6.90;99.90;;;;;;4924130;29;20043;-72
2023/12/19 03:39:11;;;;;;;43.42;24.70;;;6.90;99.90;;;;;;4939944;29;20039;-74
2023/12/19 03:41:37;;;;;;;36.05;22.80;;;6.90;99.90;;;;;;4924543;29;20047;-72
2023/12/19 03:44:05;;;;;;;35.65;22.67;;;6.90;99.90;;;;;;4940241;29;20043;-73
2023/12/19 03:46:31;;;;;;;36.58;23.00;;;6.90;99.90;;;;;;4924283;29;20109;-74
2023/12/19 03:49:00;;;;;;;34.95;23.10;;;6.90;99.90;;;;;;4939720;29;20043;-74
2023/12/19 03:51:26;;;;;;;37.85;23.38;;;6.90;99.90;;;;;;4908466;29;20510;-74
2023/12/19 03:53:56;;;;;;;34.38;22.75;;;6.90;99.90;;;;;;4939974;29;20066;-73
2023/12/19 03:56:22;;;;;;;32.20;20.77;;;6.90;99.90;;;;;;4939676;29;20074;-74
2023/12/19 03:58:48;;;;;;;31.85;20.58;;;6.90;99.90;;;;;;4955574;29;20086;-74
2023/12/19 04:01:18;;;;;;;35.90;22.17;;;6.90;99.90;;;;;;4923962;29;20113;-73
2023/12/19 04:03:44;;;;;;;35.03;20.88;;;6.90;99.90;;;;;;4939586;29;20054;-74
2023/12/19 04:06:10;;;;;;;31.40;20.35;;;6.90;99.90;;;;;;4939499;29;20168;-74
2023/12/19 04:08:36;;;;;;;34.72;23.13;;;6.90;99.90;;;;;;4939328;29;20407;-73
2023/12/19 04:11:02;;;;;;;33.85;22.25;;;6.90;99.90;;;;;;4939748;29;20450;-75
2023/12/19 04:13:29;;;;;;;37.10;23.85;;;6.90;99.90;;;;;;4939328;29;20159;-75
2023/12/19 04:15:55;;;;;;;38.83;24.17;;;6.90;99.90;;;;;;4939619;29;20392;-74
2023/12/19 04:18:20;;;;;;;39.10;23.75;;;6.90;99.90;;;;;;4938704;29;20078;-73
2023/12/19 04:21:07;;;;;;;40.03;24.95;;;6.90;99.90;;;;;;4939069;29;20059;-74
2023/12/19 04:23:49;;;;;;;42.08;25.83;;;6.90;99.90;;;;;;4923436;29;20047;-73
2023/12/19 04:26:19;;;;;;;42.50;25.58;;;7.00;99.90;;;;;;4955074;29;20141;-74
2023/12/19 04:29:08;;;;;;;39.38;24.13;;;7.00;99.90;;;;;;4955098;29;20051;-74
2023/12/19 04:31:37;;;;;;;39.60;24.52;;;7.00;99.90;;;;;;4954785;29;20367;-73
2023/12/19 04:34:03;;;;;;;41.20;25.65;;;7.00;99.90;;;;;;4939037;29;20126;-73
2023/12/19 04:36:31;;;;;;;42.35;25.20;;;7.00;99.90;;;;;;4939011;29;20054;-74
2023/12/19 04:39:03;;;;;;;37.13;22.65;;;7.00;99.90;;;;;;4939173;29;20558;-69
2023/12/19 04:41:33;;;;;;;41.80;25.05;;;7.00;99.90;;;;;;4939137;29;20070;-70
2023/12/19 04:43:59;;;;;;;40.95;23.60;;;7.00;99.90;;;;;;4907531;29;20039;-69
2023/12/19 04:46:26;;;;;;;35.53;22.05;;;7.00;99.90;;;;;;4938807;29;20069;-69
2023/12/19 04:48:52;;;;;;;37.20;22.35;;;7.00;99.90;;;;;;4922901;29;20102;-70
2023/12/19 04:51:22;;;;;;;38.38;22.75;;;7.00;99.90;;;;;;4922862;29;20186;-69
2023/12/19 04:53:49;;;;;;;36.10;21.90;;;7.00;99.90;;;;;;4923225;29;20058;-70
2023/12/19 04:56:16;;;;;;;36.63;21.35;;;7.00;99.90;;;;;;4938645;29;20043;-70
2023/12/19 04:58:44;;;;;;;35.40;21.55;;;7.00;99.90;;;;;;4922648;29;20043;-70
2023/12/19 05:01:11;;;;;;;35.83;20.75;;;7.00;99.90;;;;;;4922848;29;20519;-70
2023/12/19 05:03:39;;;;;;;32.35;18.77;;;7.00;99.90;;;;;;4938803;29;20562;-69
2023/12/19 05:06:06;;;;;;;32.25;19.27;;;7.00;99.90;;;;;;4938620;29;20047;-70
2023/12/19 05:08:32;;;;;;;31.85;18.80;;;7.00;99.90;;;;;;4938396;29;20431;-70
2023/12/19 05:10:59;;;;;;;31.20;19.33;;;7.00;99.90;;;;;;4922775;29;20130;-70
2023/12/19 05:13:27;;;;;;;31.73;18.77;;;7.00;99.90;;;;;;4922639;29;20135;-68
2023/12/19 05:15:53;;;;;;;30.85;18.48;;;7.00;99.90;;;;;;4922830;29;20040;-70
2023/12/19 05:18:19;;;;;;;32.97;19.10;;;7.00;99.90;;;;;;4938456;29;20049;-70
2023/12/19 05:20:45;;;;;;;30.88;18.23;;;7.00;99.90;;;;;;4906492;29;20514;-70
2023/12/19 05:23:11;;;;;;;29.48;17.60;;;7.00;99.90;;;;;;4922283;29;20059;-70
2023/12/19 05:25:45;;;;;;;26.20;16.67;;;7.00;99.90;;;;;;4922620;29;20045;-70
2023/12/19 05:28:11;;;;;;;30.98;18.60;;;7.00;99.90;;;;;;4954037;29;20047;-70
2023/12/19 05:30:37;;;;;;;31.10;18.38;;;7.00;99.90;;;;;;4921346;29;20180;-70
2023/12/19 05:33:03;;;;;;;28.80;18.35;;;7.00;99.90;;;;;;4953935;29;20073;-70
2023/12/19 05:35:29;;;;;;;27.65;17.40;;;7.00;99.90;;;;;;4938127;29;20555;-70
2023/12/19 05:37:55;;;;;;;29.48;18.83;;;7.00;99.90;;;;;;4953857;29;20047;-70
2023/12/19 05:40:24;;;;;;;25.42;16.08;;;7.10;99.90;;;;;;4922391;29;20496;-70
2023/12/19 05:42:56;;;;;;;28.73;18.08;;;7.10;99.90;;;;;;4938218;29;20047;-70
2023/12/19 05:45:22;;;;;;;31.05;19.15;;;7.10;99.90;;;;;;4922431;29;20051;-70
2023/12/19 05:47:48;;;;;;;32.53;18.98;;;7.20;99.90;;;;;;4938212;29;20074;-70
2023/12/19 05:50:14;;;;;;;28.30;18.05;;;7.10;99.90;;;;;;4938051;29;20121;-71
2023/12/19 05:52:40;;;;;;;30.30;18.95;;;7.10;99.90;;;;;;4938162;29;20050;-70
2023/12/19 05:55:06;;;;;;;30.60;18.08;;;7.10;99.90;;;;;;4937909;29;20043;-70
2023/12/19 05:57:32;;;;;;;28.52;18.02;;;7.10;99.90;;;;;;4921891;29;20051;-70
2023/12/19 06:00:00;;;;;;;29.92;18.63;;;7.10;99.90;;;;;;4921920;29;20134;-70
2023/12/19 06:02:27;;;;;;;30.85;18.55;;;7.10;99.90;;;;;;4922121;29;20555;-69
2023/12/19 06:04:53;;;;;;;26.52;16.75;;;7.10;99.90;;;;;;4922214;29;20130;-69
2023/12/19 06:07:19;;;;;;;28.88;18.17;;;7.10;99.90;;;;;;4906142;29;20039;-69
2023/12/19 06:09:47;;;;;;;28.63;17.40;;;7.10;99.90;;;;;;4922119;29;20038;-69
2023/12/19 06:12:13;;;;;;;25.10;15.95;;;7.20;99.90;;;;;;4937631;29;20059;-69
2023/12/19 06:14:39;;;;;;;25.65;15.80;;;7.10;99.90;;;;;;4922009;29;20531;-70
2023/12/19 06:17:08;;;;;;;24.38;14.68;;;7.10;99.90;;;;;;4937978;29;20031;-70
2023/12/19 06:19:35;;;;;;;25.92;15.18;;;7.10;99.90;;;;;;4937627;29;20086;-70
2023/12/19 06:22:00;;;;;;;23.45;14.88;;;7.10;99.90;;;;;;4921922;29;20102;-70
2023/12/19 06:24:26;;;;;;;22.83;14.75;;;7.20;99.90;;;;;;4937564;29;20081;-70
2023/12/19 06:26:53;;;;;;;22.88;14.90;;;7.10;99.90;;;;;;4906087;29;20047;-69
2023/12/19 06:29:20;;;;;;;24.95;14.43;;;7.20;99.90;;;;;;4922189;29;20046;-70
2023/12/19 06:31:46;;;;;;;25.30;15.38;;;7.10;99.90;;;;;;4938059;29;20428;-69
2023/12/19 06:34:12;;;;;;;24.40;14.95;;;7.10;99.90;;;;;;4922823;29;20051;-71
2023/12/19 06:36:38;;;;;;;21.00;13.23;;;7.10;99.90;;;;;;4922613;29;20043;-70
2023/12/19 06:39:06;;;;;;;22.02;13.75;;;7.10;99.90;;;;;;4937800;29;20051;-69
2023/12/19 06:41:32;;;;;;;21.70;13.13;;;7.10;99.90;;;;;;4938532;29;20078;-69
2023/12/19 06:43:57;;;;;;;21.70;12.88;;;7.10;99.90;;;;;;4941322;29;20065;-70
2023/12/19 06:46:23;;;;;;;22.20;13.98;;;7.20;99.90;;;;;;4941307;29;20047;-70
2023/12/19 06:48:49;;;;;;;23.00;13.95;;;7.10;99.90;;;;;;4940981;29;20039;-70
2023/12/19 06:51:25;;;;;;;22.05;13.43;;;7.10;99.90;;;;;;4925952;29;20043;-70
2023/12/19 06:53:53;;;;;;;20.52;12.98;;;7.10;99.90;;;;;;4941246;29;20476;-69
2023/12/19 06:56:18;;;;;;;22.42;13.48;;;7.20;99.90;;;;;;4941198;29;20126;-70
2023/12/19 06:58:44;;;;;;;21.27;13.07;;;7.10;99.90;;;;;;4940878;29;20135;-69
2023/12/19 07:01:10;;;;;;;22.08;13.30;;;7.10;99.90;;;;;;4940840;29;20574;-70
2023/12/19 07:03:36;;;;;;;24.17;14.05;;;7.10;99.90;;;;;;4940656;29;20105;-70
2023/12/19 07:06:02;;;;;;;21.88;13.73;;;7.20;99.90;;;;;;4940639;29;20054;-70
2023/12/19 07:08:32;;;;;;;20.63;13.40;;;7.10;99.90;;;;;;4909171;29;20039;-71
2023/12/19 07:10:58;;;;;;;21.23;12.63;;;7.20;99.90;;;;;;4942526;29;20055;-71
2023/12/19 07:13:23;;;;;;;19.83;12.27;;;7.10;99.90;;;;;;4929510;29;20074;-70
2023/12/19 07:15:49;;;;;;;23.80;13.68;;;7.20;99.90;;;;;;4944494;29;20102;-69
2023/12/19 07:18:15;;;;;;;20.02;12.20;;;7.20;99.90;;;;;;4924917;29;20496;-70
2023/12/19 07:20:41;;;;;;;24.25;14.02;;;7.20;99.90;;;;;;4941663;29;20098;-70
2023/12/19 07:23:07;;;;;;;23.17;13.77;;;7.20;99.90;;;;;;4925372;29;20053;-70
2023/12/19 07:25:34;;;;;;;23.33;14.05;;;7.20;99.90;;;;;;4942103;29;20051;-68
2023/12/19 07:28:00;;;;;;;23.88;14.60;;;7.20;99.90;;;;;;4940910;29;20484;-68
2023/12/19 07:30:25;;;;;;;21.58;13.93;;;7.20;99.90;;;;;;4940421;29;20102;-69
2023/12/19 07:32:51;;;;;;;24.10;14.65;;;7.20;99.90;;;;;;4924504;29;20106;-69
2023/12/19 07:35:19;;;;;;;22.95;13.68;;;7.20;99.90;;;;;;4924511;29;20474;-69
2023/12/19 07:37:48;;;;;;;24.77;14.68;;;7.20;99.90;;;;;;4925406;29;20051;-70
2023/12/19 07:40:14;;;;;;;24.65;13.95;;;7.20;99.90;;;;;;4925165;29;20102;-69
2023/12/19 07:42:40;;;;;;;23.33;14.32;;;7.30;99.90;;;;;;4942963;29;20571;-70
2023/12/19 07:45:06;;;;;;;24.95;14.75;;;7.20;99.90;;;;;;4945418;29;20050;-69
2023/12/19 07:47:33;;;;;;;27.42;15.60;;;7.30;99.90;;;;;;4928517;29;20105;-70
2023/12/19 07:49:59;;;;;;;23.10;14.50;;;7.20;99.90;;;;;;4944648;29;20083;-70
2023/12/19 07:52:27;;;;;;;26.88;15.73;;;7.30;99.90;;;;;;4926995;28;20480;-70
2023/12/19 07:54:54;;;;;;;22.92;14.00;;;7.30;99.90;;;;;;4924010;29;20047;-70
2023/12/19 07:57:20;;;;;;;24.55;14.93;;;7.30;99.90;;;;;;4955961;29;20047;-70
2023/12/19 07:59:48;;;;;;;20.75;13.43;;;7.20;99.90;;;;;;4941527;29;20061;-69
2023/12/19 08:02:14;;;;;;;25.05;13.88;;;7.30;99.90;;;;;;4927551;29;20478;-70
2023/12/19 08:04:42;;;;;;;23.48;14.02;;;7.30;99.90;;;;;;4943769;29;20150;-69
2023/12/19 08:07:18;;;;;;;22.30;14.23;;;7.30;99.90;;;;;;4924028;29;20110;-70
2023/12/19 08:09:44;;;;;;;21.13;14.05;;;7.30;99.90;;;;;;4955696;29;20051;-70
2023/12/19 08:12:10;;;;;;;22.80;14.38;;;7.30;99.90;;;;;;4924085;29;20492;-70
2023/12/19 08:14:36;;;;;;;21.95;14.38;;;7.30;99.90;;;;;;4939609;29;20047;-69
2023/12/19 08:17:10;;;;;;;22.17;13.70;;;7.40;99.90;;;;;;4908163;29;20049;-71
2023/12/19 08:19:37;;;;;;;23.25;12.95;;;7.40;99.90;;;;;;4939501;29;20063;-70
2023/12/19 08:22:03;;;;;;;21.23;13.48;;;7.40;99.90;;;;;;4923415;29;20058;-71
2023/12/19 08:24:29;;;;;;;16.92;11.40;;;7.40;99.90;;;;;;4923778;29;20043;-70
2023/12/19 08:26:55;;;;;;;18.70;12.05;;;7.40;99.90;;;;;;4939210;29;20047;-70
2023/12/19 08:29:21;;;;;;;18.60;11.60;;;7.40;99.90;;;;;;4938979;29;20043;-70
2023/12/19 08:31:47;;;;;;;18.58;11.90;;;7.40;99.90;;;;;;4939173;29;20134;-70
2023/12/19 08:34:17;;;;;;;20.52;11.95;;;7.40;99.90;;;;;;4939131;29;20054;-70
2023/12/19 08:36:43;;;;;;;17.13;11.00;;;7.50;99.90;;;;;;4939191;29;20503;-71
2023/12/19 08:39:10;;;;;;;17.85;11.23;;;7.40;99.90;;;;;;4939021;29;20121;-70
2023/12/19 08:41:37;;;;;;;17.58;11.63;;;7.50;99.90;;;;;;4939153;29;20039;-70
2023/12/19 08:44:03;;;;;;;16.25;9.77;;;7.50;99.90;;;;;;4939068;29;20051;-70
2023/12/19 08:46:30;;;;;;;15.05;10.57;;;7.50;99.90;;;;;;4922905;29;20052;-70
2023/12/19 08:48:56;;;;;;;16.65;11.50;;;7.50;99.90;;;;;;4938950;29;20085;-71
2023/12/19 08:51:22;;;;;;;17.42;11.18;;;7.50;99.90;;;;;;4923227;29;20463;-71
2023/12/19 08:53:48;;;;;;;18.90;11.25;;;7.50;99.90;;;;;;4922829;29;20049;-71
2023/12/19 08:56:14;;;;;;;16.98;11.45;;;7.50;99.90;;;;;;4938684;29;20132;-71
2023/12/19 08:58:43;;;;;;;19.48;11.75;;;7.50;99.90;;;;;;4922818;29;20136;-70
2023/12/19 09:01:09;;;;;;;16.38;10.70;;;7.60;99.90;;;;;;4922702;29;20043;-71
2023/12/19 09:03:35;;;;;;;17.52;11.27;;;7.60;99.90;;;;;;4938504;29;20097;-71
2023/12/19 09:06:01;;;;;;;17.15;11.05;;;7.60;99.90;;;;;;4938537;29;20039;-71
2023/12/19 09:08:27;;;;;;;15.80;10.20;;;7.60;99.90;;;;;;4922456;29;20039;-71
2023/12/19 09:10:52;;;;;;;16.17;10.68;;;7.70;99.90;;;;;;4938949;29;20040;-72
2023/12/19 09:13:20;;;;;;;15.55;10.00;;;7.70;99.90;;;;;;4938674;29;20039;-75
2023/12/19 09:15:46;;;;;;;17.50;11.20;;;7.70;99.90;;;;;;4922724;29;20043;-74
2023/12/19 09:18:12;;;;;;;17.75;11.35;;;7.70;99.90;;;;;;4938759;29;20055;-74
2023/12/19 09:20:38;;;;;;;17.60;10.77;;;7.70;99.90;;;;;;4922252;29;20062;-73
2023/12/19 09:23:05;;;;;;;19.90;11.90;;;7.70;99.90;;;;;;4938311;29;20407;-73
2023/12/19 09:25:30;;;;;;;16.85;11.40;;;7.70;99.90;;;;;;4938143;29;20047;-73
2023/12/19 09:27:56;;;;;;;17.33;11.73;;;7.70;99.90;;;;;;4937984;29;20047;-74
2023/12/19 09:30:23;;;;;;;16.58;10.52;;;7.70;99.90;;;;;;4937683;29;20416;-74
2023/12/19 09:32:49;;;;;;;19.80;13.02;;;7.70;99.90;;;;;;4938305;29;20408;-74
2023/12/19 09:35:15;;;;;;;17.83;11.57;;;7.80;99.90;;;;;;4938081;29;20050;-73
2023/12/19 09:37:40;;;;;;;16.17;10.27;;;7.80;99.90;;;;;;4937742;29;20542;-73
2023/12/19 09:40:15;;;;;;;18.80;11.38;;;7.80;99.90;;;;;;4937794;29;20047;-74
2023/12/19 09:42:42;;;;;;;17.90;11.35;;;7.80;99.90;;;;;;4937994;29;20054;-73
2023/12/19 09:45:08;;;;;;;16.27;10.90;;;7.80;99.90;;;;;;4937763;29;20043;-74
2023/12/19 09:47:39;;;;;;;17.83;11.50;;;7.80;99.90;;;;;;4937863;29;20035;-74
2023/12/19 09:50:08;;;;;;;20.40;12.63;;;7.90;99.90;;;;;;4937684;29;20039;-73
2023/12/19 09:52:35;;;;;;;18.30;11.60;;;7.90;99.90;;;;;;4937670;29;20043;-73
2023/12/19 09:55:04;;;;;;;18.92;11.43;;;7.90;99.90;;;;;;4937982;29;20400;-73
2023/12/19 09:57:35;;;;;;;17.08;11.13;;;7.90;99.90;;;;;;4953739;29;20050;-74
2023/12/19 10:00:08;;;;;;;19.83;11.93;;;7.90;99.90;;;;;;4937844;29;20444;-74
2023/12/19 10:02:34;;;;;;;24.00;13.30;;;7.90;99.90;;;;;;4937915;29;20047;-74
2023/12/19 10:05:00;;;;;;;18.80;12.07;;;8.00;99.90;;;;;;4937601;29;20188;-78
2023/12/19 10:07:29;;;;;;;21.63;13.40;;;8.00;99.90;;;;;;4937801;29;20134;-77
2023/12/19 10:09:56;;;;;;;19.95;12.98;;;8.00;99.90;;;;;;4938001;29;20495;-77
2023/12/19 10:12:29;;;;;;;18.83;11.45;;;8.00;99.90;;;;;;4938134;29;20568;-78
2023/12/19 10:15:15;;;;;;;20.40;12.82;;;8.00;99.90;;;;;;4938017;29;20547;-77
2023/12/19 10:18:07;;;;;;;19.67;13.13;;;8.10;99.90;;;;;;4927821;29;20042;-77
2023/12/19 10:20:33;;;;;;;22.70;13.95;;;8.10;99.90;;;;;;4928002;29;20055;-77
2023/12/19 10:23:04;;;;;;;24.65;14.93;;;8.10;99.90;;;;;;4928662;28;20046;-78
2023/12/19 10:25:33;;;;;;;22.88;14.05;;;8.10;99.90;;;;;;4944695;29;20051;-78
2023/12/19 10:28:09;;;;;;;21.30;13.93;;;8.10;99.90;;;;;;4945001;29;20488;-78
2023/12/19 10:30:38;;;;;;;20.88;13.95;;;8.10;99.90;;;;;;4944195;29;20074;-78
2023/12/19 10:33:07;;;;;;;21.13;14.80;;;8.20;99.90;;;;;;4944118;28;20400;-78
2023/12/19 10:35:37;;;;;;;22.63;14.90;;;8.20;99.90;;;;;;4944058;29;20484;-78
2023/12/19 10:38:03;;;;;;;25.17;16.52;;;8.20;99.90;;;;;;4943758;29;20130;-77
2023/12/19 10:40:32;;;;;;;26.27;16.98;;;8.20;99.90;;;;;;4944004;29;20121;-77
2023/12/19 10:43:02;;;;;;;25.17;16.77;;;8.20;99.90;;;;;;4943785;29;20093;-78
2023/12/19 10:45:28;;;;;;;24.30;16.08;;;8.20;99.90;;;;;;4944012;29;20567;-78
2023/12/19 10:47:54;;;;;;;27.63;17.60;;;8.30;99.90;;;;;;4943733;29;20137;-78
2023/12/19 10:50:21;;;;;;;30.33;18.63;;;8.30;99.90;;;;;;4944147;29;20457;-79
2023/12/19 10:52:51;;;;;;;24.63;16.17;;;8.30;99.90;;;;;;4912495;29;20035;-79
2023/12/19 10:55:20;;;;;;;27.63;18.13;;;8.30;99.90;;;;;;4928419;29;20039;-78
2023/12/19 10:57:48;;;;;;;25.88;17.73;;;8.30;99.90;;;;;;4928203;29;20078;-79
2023/12/19 11:00:21;;;;;;;28.20;18.10;;;8.30;99.90;;;;;;4943712;29;20495;-78
2023/12/19 11:02:57;;;;;;;29.33;19.10;;;8.30;99.90;;;;;;4928016;29;20492;-78
2023/12/19 11:05:42;;;;;;;25.48;17.65;;;8.30;99.90;;;;;;4943620;29;20047;-77
2023/12/19 11:08:23;;;;;;;26.33;17.48;;;8.40;99.90;;;;;;4927724;29;20102;-78
2023/12/19 11:11:09;;;;;;;23.05;16.20;;;8.40;99.90;;;;;;4927896;29;20036;-78
2023/12/19 11:13:37;;;;;;;23.27;16.48;;;8.40;99.90;;;;;;4927572;29;20047;-79
2023/12/19 11:16:12;;;;;;;23.48;16.25;;;8.50;99.90;;;;;;4943383;29;20094;-78
2023/12/19 11:18:55;;;;;;;25.52;17.60;;;8.50;99.90;;;;;;4943509;29;20440;-79
2023/12/19 11:21:28;;;;;;;25.67;17.92;;;8.50;99.90;;;;;;4927406;29;20051;-79
2023/12/19 11:24:07;;;;;;;26.63;17.48;;;8.50;99.90;;;;;;4943903;29;20562;-78
2023/12/19 11:27:16;;;;;;;26.23;18.13;;;8.50;99.90;;;;;;4927598;29;20051;-77
2023/12/19 11:29:46;;;;;;;25.55;17.88;;;8.50;99.90;;;;;;4940236;29;20415;-78
2023/12/19 11:32:28;;;;;;;26.55;18.20;;;8.60;99.90;;;;;;4940339;29;20039;-78
2023/12/19 11:35:14;;;;;;;23.30;16.55;;;8.60;99.90;;;;;;4940581;29;20035;-78
2023/12/19 11:37:43;;;;;;;24.70;17.17;;;8.60;99.90;;;;;;4940125;29;20039;-78
2023/12/19 11:40:18;;;;;;;25.60;18.92;;;8.60;99.90;;;;;;4940260;29;20101;-78
2023/12/19 11:42:45;;;;;;;23.52;17.45;;;8.60;99.90;;;;;;4940177;29;20547;-78
2023/12/19 11:45:17;;;;;;;23.95;16.95;;;8.70;99.90;;;;;;4940325;29;20484;-78
2023/12/19 11:47:52;;;;;;;22.67;16.60;;;8.70;99.90;;;;;;4924146;29;20043;-78
2023/12/19 11:50:53;;;;;;;25.40;18.23;;;8.70;99.90;;;;;;4940756;29;20043;-78
2023/12/19 11:53:23;;;;;;;23.27;17.38;;;8.70;99.90;;;;;;4929289;29;20109;-79
2023/12/19 11:55:48;;;;;;;23.20;17.67;;;8.70;99.90;;;;;;4955815;29;20043;-79
2023/12/19 11:58:14;;;;;;;21.17;15.98;;;8.70;99.90;;;;;;4939671;29;20526;-78
2023/12/19 12:00:40;;;;;;;22.67;17.40;;;8.80;99.90;;;;;;4924017;29;20047;-78
2023/12/19 12:03:07;;;;;;;23.25;18.13;;;8.80;99.90;;;;;;4939991;29;20043;-78
2023/12/19 12:05:36;;;;;;;25.50;18.17;;;8.80;99.90;;;;;;4939378;29;20051;-78
2023/12/19 12:08:03;;;;;;;22.65;17.58;;;8.80;99.90;;;;;;4939865;29;20408;-78
2023/12/19 12:10:29;;;;;;;25.08;17.98;;;8.80;99.90;;;;;;4939719;29;20408;-78
2023/12/19 12:12:58;;;;;;;23.80;17.67;;;8.80;99.90;;;;;;4955395;29;20098;-79
2023/12/19 12:15:25;;;;;;;24.05;19.13;;;8.80;99.90;;;;;;4939546;29;20078;-78
2023/12/19 12:18:05;;;;;;;25.33;19.52;;;8.80;99.90;;;;;;4939033;29;20054;-78
2023/12/19 12:20:33;;;;;;;27.17;20.27;;;8.80;99.90;;;;;;4939069;29;20059;-78
2023/12/19 12:22:59;;;;;;;24.63;17.88;;;8.80;99.90;;;;;;4923614;29;20063;-77
2023/12/19 12:25:25;;;;;;;23.77;17.90;;;8.80;99.90;;;;;;4939435;29;20039;-78
2023/12/19 12:27:55;;;;;;;25.92;18.65;;;8.80;99.90;;;;;;4907836;29;20051;-78
2023/12/19 12:30:27;;;;;;;25.13;19.33;;;8.80;99.90;;;;;;4924538;29;20054;-77
2023/12/19 12:32:53;;;;;;;25.80;18.87;;;8.80;99.90;;;;;;4923754;29;20043;-78
2023/12/19 12:35:24;;;;;;;22.30;16.95;;;8.80;99.90;;;;;;4939253;29;20043;-78
2023/12/19 12:38:00;;;;;;;23.48;17.55;;;8.80;99.90;;;;;;4939233;29;20043;-79
2023/12/19 12:40:27;;;;;;;21.58;16.80;;;8.80;99.90;;;;;;4938866;29;20047;-78
2023/12/19 12:43:13;;;;;;;22.45;17.23;;;8.80;99.90;;;;;;4939333;29;20035;-77